Terminal Aerodrome Forecast
Issued by NWS Raleigh/Durham, NC

Home | Current Version | Previous Version | Text Only | Print | Product List | Glossary On
Versions: 1 2 3 4 5 6 7 8 9 10 11 12 13 14 15 16 17 18 19 20 21 22 23 24 25 26 27 28 29 30 31 32 33 34 35 36 37 38 39 40 41 42
530
FTUS42 KRAH 291720
TAFFAY
TAF
KFAY 291720Z 2918/3018 01010KT P6SM VCSH SCT035
     FM300000 04005KT P6SM BKN150
      TEMPO 3010/3014 BKN010=

USA.gov is the U.S. government's official web portal to all federal, state and local government web resources and services.